KDMA/DMA METAR and TAF weather

Enter ICAO airport designator
Station Type Date Time Source
KDMA METAR 2018/07/19 06:58 UTC NOAA

KDMA 190658Z AUTO 17004KT 10SM CLR 27/20 A3006 RMK AO2 SLP132 T02680201 403620247 $


Station Type Date Time Source
KDMA Decoded METAR 2018/07/19 06:58 UTC NOAA

Davis-Monthan Air Force Base, AZ, United States (KDMA) 32-10N 110-53W
Jul 19, 2018 - 02:58 AM EDT / 2018.07.19 0658 UTC
Wind: from the S (170 degrees) at 5 MPH (4 KT):0
Visibility: 10 mile(s):0
Sky conditions: clear
Temperature: 80.2 F (26.8 C)
Dew Point: 68.2 F (20.1 C)
Relative Humidity: 66%
Pressure (altimeter): 30.06 in. Hg (1017 hPa)
ob: KDMA 190658Z AUTO 17004KT 10SM CLR 27/20 A3006 RMK AO2 SLP132 T02680201 403620247
cycle: 7

Station Type Date Time Source
KDMA TAF 2018/07/19 06:24 UTC NOAA

TAF KDMA 190605Z 1906/2012 VRB06KT 9999 SCT100 QNH3006INS
BECMG 1919/1920 30012KT 9999 SCT100 QNH3002INS TS OMTNS
BECMG 2003/2004 VRB06KT 9999 SKC QNH3005INS TX37/1922Z TN23/1913Z


Example: see airport list